Time;durP1;ratioP1;P1;durP2;ratioP2;P2;SDS_P1;SDS_P2;PMS_P1;PMS_P2;Temp;Humidity;BMP_temperature;BMP_pressure;BME280_temperature;BME280_humidity;BME280_pressure;Samples;Min_cycle;Max_cycle;Signal;HPM_P1;HPM_P2
2023/12/01 00:01:24;;;;;;;6.05;4.57;;;19.90;31.50;;;;;;5041398;28;20017;-59
2023/12/01 00:03:50;;;;;;;7.00;4.97;;;19.90;31.50;;;;;;5027449;28;20057;-55
2023/12/01 00:06:16;;;;;;;6.63;4.90;;;19.90;31.50;;;;;;5010489;28;20407;-57
2023/12/01 00:08:42;;;;;;;6.13;4.13;;;19.90;31.50;;;;;;5043753;28;20444;-56
2023/12/01 00:11:08;;;;;;;5.72;4.50;;;19.90;31.40;;;;;;5052297;28;20083;-58
2023/12/01 00:13:34;;;;;;;7.63;5.05;;;19.90;31.40;;;;;;5046332;28;20109;-57
2023/12/01 00:16:00;;;;;;;6.65;4.47;;;19.80;31.40;;;;;;5044276;28;20056;-59
2023/12/01 00:18:27;;;;;;;8.10;5.45;;;19.90;31.40;;;;;;5041446;28;20360;-58
2023/12/01 00:20:53;;;;;;;7.93;5.78;;;19.80;31.40;;;;;;5042412;28;20172;-57
2023/12/01 00:23:20;;;;;;;7.90;5.55;;;19.80;31.40;;;;;;5011437;28;20430;-58
2023/12/01 00:25:46;;;;;;;7.80;5.57;;;19.80;31.40;;;;;;5037653;28;20099;-57
2023/12/01 00:28:12;;;;;;;8.13;5.68;;;19.80;31.40;;;;;;5047491;28;20198;-57
2023/12/01 00:30:38;;;;;;;7.07;5.78;;;19.80;31.40;;;;;;5008754;28;20029;-56
2023/12/01 00:33:04;;;;;;;9.70;6.82;;;19.80;31.40;;;;;;5022431;28;20452;-56
2023/12/01 00:35:30;;;;;;;8.88;6.47;;;19.80;31.40;;;;;;5047309;28;20096;-58
2023/12/01 00:37:56;;;;;;;9.88;6.63;;;19.80;31.50;;;;;;5013338;28;20040;-55
2023/12/01 00:40:22;;;;;;;10.15;6.97;;;19.80;31.50;;;;;;5015908;28;20486;-58
2023/12/01 00:42:48;;;;;;;10.27;6.65;;;19.80;31.50;;;;;;5031723;28;20049;-57
2023/12/01 00:45:15;;;;;;;10.60;7.32;;;19.80;31.50;;;;;;5024530;28;20124;-56
2023/12/01 00:47:41;;;;;;;10.20;7.30;;;19.80;31.50;;;;;;5033235;28;20053;-58
2023/12/01 00:50:09;;;;;;;10.70;7.20;;;19.80;31.50;;;;;;5015968;28;20033;-57
2023/12/01 00:52:35;;;;;;;11.82;8.60;;;19.80;31.50;;;;;;5033543;28;20045;-55
2023/12/01 00:55:01;;;;;;;10.55;7.32;;;19.70;31.50;;;;;;5033297;28;20030;-54
2023/12/01 00:57:27;;;;;;;10.38;7.13;;;19.70;31.40;;;;;;5033645;28;20360;-59
2023/12/01 00:59:53;;;;;;;11.70;8.00;;;19.70;31.40;;;;;;5033670;28;20105;-59
2023/12/01 01:02:19;;;;;;;12.38;8.45;;;19.70;31.40;;;;;;5033558;28;20445;-58
2023/12/01 01:04:45;;;;;;;13.30;7.95;;;19.70;31.40;;;;;;5014875;28;20025;-56
2023/12/01 01:07:11;;;;;;;13.68;8.90;;;19.70;31.40;;;;;;5014746;28;20041;-56
2023/12/01 01:09:37;;;;;;;13.38;8.30;;;19.70;31.40;;;;;;5033377;28;20028;-54
2023/12/01 01:12:03;;;;;;;12.07;8.43;;;19.70;31.40;;;;;;4999318;28;20041;-56
2023/12/01 01:14:29;;;;;;;12.45;8.20;;;19.70;31.40;;;;;;5015035;28;20075;-57
2023/12/01 01:16:55;;;;;;;12.48;8.85;;;19.70;31.40;;;;;;5032890;28;20033;-55
2023/12/01 01:19:21;;;;;;;12.93;8.05;;;19.70;31.40;;;;;;5015051;28;20395;-55
2023/12/01 01:21:47;;;;;;;12.45;9.02;;;19.70;31.40;;;;;;5015246;28;20029;-58
2023/12/01 01:24:13;;;;;;;14.90;8.77;;;19.70;31.30;;;;;;5033076;28;20116;-61
2023/12/01 01:26:39;;;;;;;13.52;9.07;;;19.70;31.30;;;;;;5032718;28;20044;-53
2023/12/01 01:29:05;;;;;;;13.77;8.73;;;19.70;31.30;;;;;;5032876;28;20452;-57
2023/12/01 01:31:31;;;;;;;14.95;9.13;;;19.60;31.30;;;;;;5015503;28;20060;-56
2023/12/01 01:33:57;;;;;;;15.35;9.57;;;19.60;31.30;;;;;;5014753;28;20471;-58
2023/12/01 01:36:23;;;;;;;15.25;9.45;;;19.60;31.30;;;;;;5015906;28;20021;-57
2023/12/01 01:38:49;;;;;;;15.07;10.40;;;19.60;31.30;;;;;;5032911;28;20406;-56
2023/12/01 01:41:15;;;;;;;14.30;9.57;;;19.60;31.30;;;;;;5032482;28;20069;-57
2023/12/01 01:43:41;;;;;;;15.57;9.90;;;19.60;31.30;;;;;;5015660;28;20025;-56
2023/12/01 01:46:11;;;;;;;16.17;10.05;;;19.60;31.30;;;;;;5033387;28;20040;-59
2023/12/01 01:48:37;;;;;;;17.05;10.75;;;19.60;31.20;;;;;;5014925;28;20022;-58
2023/12/01 01:51:09;;;;;;;17.67;11.23;;;19.60;31.20;;;;;;5033341;28;20033;-55
2023/12/01 01:53:41;;;;;;;17.17;11.27;;;19.60;31.20;;;;;;5033053;28;20022;-56
2023/12/01 01:56:11;;;;;;;16.80;10.82;;;19.60;31.20;;;;;;5021197;28;20460;-57
2023/12/01 01:58:38;;;;;;;18.70;11.60;;;19.60;31.30;;;;;;5012790;28;20034;-56
2023/12/01 02:01:07;;;;;;;16.98;11.60;;;19.60;31.30;;;;;;5014788;28;20440;-54
2023/12/01 02:03:33;;;;;;;17.90;11.50;;;19.50;31.20;;;;;;5015003;28;20030;-54
2023/12/01 02:05:59;;;;;;;17.92;11.18;;;19.50;31.20;;;;;;5014949;28;20132;-54
2023/12/01 02:08:29;;;;;;;18.50;12.18;;;19.60;31.30;;;;;;5031842;28;20125;-56
2023/12/01 02:10:56;;;;;;;17.90;11.50;;;19.50;31.20;;;;;;4998912;28;20033;-56
2023/12/01 02:13:23;;;;;;;18.27;11.75;;;19.50;31.20;;;;;;5015889;28;20108;-57
2023/12/01 02:15:50;;;;;;;18.30;11.35;;;19.50;31.30;;;;;;4996192;28;20502;-59
2023/12/01 02:18:33;;;;;;;17.42;11.70;;;19.50;31.90;;;;;;5014794;28;20034;-60
2023/12/01 02:21:00;;;;;;;18.40;12.07;;;19.50;31.30;;;;;;4997606;28;20044;-56
2023/12/01 02:23:27;;;;;;;17.20;11.73;;;19.50;31.30;;;;;;5032092;28;20379;-57
2023/12/01 02:25:54;;;;;;;18.30;12.25;;;19.50;31.30;;;;;;5014178;28;20056;-58
2023/12/01 02:28:20;;;;;;;18.38;11.50;;;19.50;31.30;;;;;;5032140;28;20021;-55
2023/12/01 02:30:53;;;;;;;19.40;12.15;;;19.50;31.30;;;;;;5031792;28;20506;-57
2023/12/01 02:33:20;;;;;;;16.30;10.32;;;19.50;31.30;;;;;;5031904;28;20044;-57
2023/12/01 02:35:47;;;;;;;16.20;10.82;;;19.50;31.30;;;;;;5013993;28;20022;-54
2023/12/01 02:38:13;;;;;;;17.75;11.40;;;19.50;31.30;;;;;;4996844;28;20087;-60
2023/12/01 02:40:51;;;;;;;16.08;10.77;;;19.50;31.30;;;;;;5012195;28;20025;-57
2023/12/01 02:43:18;;;;;;;15.95;10.25;;;19.50;31.30;;;;;;5040697;28;20376;-54
2023/12/01 02:45:45;;;;;;;14.90;10.07;;;19.50;31.30;;;;;;5027270;28;20029;-60
2023/12/01 02:48:11;;;;;;;15.88;11.02;;;19.50;31.30;;;;;;5045852;28;20032;-56
2023/12/01 02:50:38;;;;;;;14.85;10.00;;;19.50;31.30;;;;;;5041257;28;20079;-57
2023/12/01 02:53:05;;;;;;;14.93;10.32;;;19.40;31.30;;;;;;5027063;28;20057;-57
2023/12/01 02:55:31;;;;;;;15.93;10.77;;;19.40;31.30;;;;;;5029470;28;20025;-57
2023/12/01 02:57:57;;;;;;;16.63;10.35;;;19.40;31.30;;;;;;5047853;28;20103;-60
2023/12/01 03:00:24;;;;;;;15.52;10.40;;;19.40;31.30;;;;;;5028297;28;20116;-60
2023/12/01 03:02:51;;;;;;;14.57;9.65;;;19.40;31.30;;;;;;5042818;28;20348;-57
2023/12/01 03:05:17;;;;;;;13.55;10.10;;;19.40;31.30;;;;;;5047307;28;20428;-56
2023/12/01 03:07:43;;;;;;;13.77;9.90;;;19.40;31.30;;;;;;5039187;28;20044;-58
2023/12/01 03:10:09;;;;;;;14.32;9.57;;;19.40;31.30;;;;;;5030723;28;20440;-56
2023/12/01 03:12:36;;;;;;;12.65;9.20;;;19.40;31.30;;;;;;5022209;28;20048;-58
2023/12/01 03:15:04;;;;;;;13.73;10.10;;;19.40;31.30;;;;;;5052502;28;20047;-57
2023/12/01 03:17:31;;;;;;;13.80;9.65;;;19.40;31.30;;;;;;5022853;28;20032;-58
2023/12/01 03:19:58;;;;;;;13.18;9.15;;;19.40;31.30;;;;;;5043028;28;20021;-57
2023/12/01 03:22:24;;;;;;;13.65;9.63;;;19.40;31.30;;;;;;5039287;28;20020;-58
2023/12/01 03:24:50;;;;;;;13.00;9.63;;;19.40;31.30;;;;;;5029231;28;20171;-57
2023/12/01 03:27:25;;;;;;;11.73;8.75;;;19.40;31.30;;;;;;5023954;28;20372;-57
2023/12/01 03:29:54;;;;;;;12.73;8.85;;;19.40;31.30;;;;;;5030215;28;20029;-57
2023/12/01 03:32:20;;;;;;;13.05;8.98;;;19.40;31.30;;;;;;5046007;28;20021;-59
2023/12/01 03:34:46;;;;;;;12.48;9.18;;;19.30;31.30;;;;;;5027309;28;20186;-58
2023/12/01 03:37:12;;;;;;;12.95;8.80;;;19.40;31.30;;;;;;5045423;28;20033;-55
2023/12/01 03:39:38;;;;;;;11.63;8.35;;;19.30;31.30;;;;;;5044317;28;20088;-57
2023/12/01 03:42:04;;;;;;;12.70;8.73;;;19.30;31.30;;;;;;5030796;28;20365;-60
2023/12/01 03:44:32;;;;;;;10.55;8.05;;;19.30;31.30;;;;;;5036385;28;20051;-54
2023/12/01 03:46:58;;;;;;;11.52;8.30;;;19.30;31.40;;;;;;5036542;28;20456;-59
2023/12/01 03:49:24;;;;;;;11.85;8.57;;;19.30;31.50;;;;;;5054520;28;20035;-57
2023/12/01 03:51:52;;;;;;;12.82;8.35;;;19.30;31.50;;;;;;5035885;28;20044;-60
2023/12/01 03:54:19;;;;;;;11.77;8.82;;;19.30;31.50;;;;;;5034552;28;20036;-56
2023/12/01 03:56:45;;;;;;;11.95;8.80;;;19.30;31.40;;;;;;5036347;28;20039;-59
2023/12/01 03:59:12;;;;;;;10.45;8.15;;;19.30;31.40;;;;;;5036516;28;20086;-57
2023/12/01 04:01:38;;;;;;;10.90;8.25;;;19.30;31.40;;;;;;5053775;28;20017;-59
2023/12/01 04:04:05;;;;;;;10.57;7.85;;;19.30;31.40;;;;;;5036973;28;20032;-56
2023/12/01 04:06:33;;;;;;;9.98;7.55;;;19.30;31.40;;;;;;5018776;28;20029;-57
2023/12/01 04:09:09;;;;;;;10.30;7.80;;;19.30;32.10;;;;;;5053808;28;20029;-59
2023/12/01 04:11:36;;;;;;;10.82;8.13;;;19.30;31.50;;;;;;5053988;28;20052;-57
2023/12/01 04:14:03;;;;;;;10.73;7.65;;;19.30;32.10;;;;;;5054049;28;20424;-59
2023/12/01 04:16:32;;;;;;;10.95;8.27;;;19.30;31.50;;;;;;5041858;28;20024;-56
2023/12/01 04:18:58;;;;;;;11.18;7.97;;;19.30;31.50;;;;;;5036073;28;20452;-56
2023/12/01 04:21:24;;;;;;;10.93;8.02;;;19.20;31.40;;;;;;5036690;28;20036;-56
2023/12/01 04:23:52;;;;;;;10.80;8.25;;;19.20;31.40;;;;;;5053815;28;20452;-58
2023/12/01 04:26:19;;;;;;;10.57;7.78;;;19.20;31.40;;;;;;5033485;28;20463;-59
2023/12/01 04:28:44;;;;;;;10.82;7.90;;;19.30;31.50;;;;;;5053474;28;20021;-57
2023/12/01 04:31:10;;;;;;;10.70;7.63;;;19.20;31.40;;;;;;5036139;28;20043;-57
2023/12/01 04:33:36;;;;;;;11.25;8.05;;;19.20;31.50;;;;;;5052563;28;20025;-56
2023/12/01 04:36:06;;;;;;;10.32;7.63;;;19.20;31.40;;;;;;5053285;28;20033;-56
2023/12/01 04:38:35;;;;;;;10.90;7.90;;;19.20;31.50;;;;;;5053626;28;20521;-56
2023/12/01 04:41:02;;;;;;;10.38;7.75;;;19.20;31.50;;;;;;5049489;28;20039;-57
2023/12/01 04:43:28;;;;;;;10.75;8.27;;;19.20;31.50;;;;;;5033895;28;20459;-57
2023/12/01 04:45:54;;;;;;;11.68;8.05;;;19.20;31.50;;;;;;5033154;28;20042;-56
2023/12/01 04:48:20;;;;;;;10.30;7.90;;;19.20;31.50;;;;;;5033077;28;20068;-58
2023/12/01 04:50:47;;;;;;;10.15;7.60;;;19.20;31.50;;;;;;5015159;28;20041;-57
2023/12/01 04:53:13;;;;;;;9.90;7.72;;;19.20;31.50;;;;;;5032876;28;20401;-53
2023/12/01 04:55:39;;;;;;;10.13;7.80;;;19.20;31.50;;;;;;5033182;28;20060;-56
2023/12/01 04:58:05;;;;;;;10.40;7.45;;;19.10;31.40;;;;;;5015507;28;20037;-57
2023/12/01 05:00:31;;;;;;;10.95;8.07;;;19.20;31.50;;;;;;5014650;28;20048;-58
2023/12/01 05:02:58;;;;;;;12.07;8.52;;;19.20;31.50;;;;;;5033124;28;20474;-58
2023/12/01 05:05:29;;;;;;;9.18;7.28;;;19.20;31.50;;;;;;5015747;28;20044;-60
2023/12/01 05:07:59;;;;;;;10.57;7.78;;;19.20;31.50;;;;;;5011287;28;20030;-56
2023/12/01 05:10:28;;;;;;;10.95;8.02;;;19.10;31.50;;;;;;5032990;28;20321;-57
2023/12/01 05:12:56;;;;;;;12.00;8.23;;;19.10;31.50;;;;;;5032892;28;20032;-57
2023/12/01 05:15:25;;;;;;;11.93;8.15;;;19.20;31.50;;;;;;5013130;28;20033;-56
2023/12/01 05:17:52;;;;;;;10.93;8.10;;;19.10;31.50;;;;;;5016022;28;20049;-60
2023/12/01 05:20:19;;;;;;;11.23;8.45;;;19.10;31.50;;;;;;5015478;28;20029;-56
2023/12/01 05:22:50;;;;;;;11.07;8.45;;;19.10;31.50;;;;;;5032814;28;20125;-58
2023/12/01 05:25:18;;;;;;;10.38;8.00;;;19.10;31.50;;;;;;5032645;28;20108;-58
2023/12/01 05:27:54;;;;;;;12.90;8.95;;;19.10;31.50;;;;;;5032543;28;20056;-54
2023/12/01 05:30:22;;;;;;;11.95;8.65;;;19.10;31.50;;;;;;5032873;28;20136;-56
2023/12/01 05:32:49;;;;;;;11.20;8.93;;;19.10;31.50;;;;;;5014481;28;20021;-57
2023/12/01 05:35:16;;;;;;;12.10;8.60;;;19.00;31.50;;;;;;5032244;28;20125;-57
2023/12/01 05:37:50;;;;;;;12.48;8.77;;;19.10;31.50;;;;;;5032154;28;20460;-56
2023/12/01 05:40:35;;;;;;;12.20;8.27;;;19.10;31.50;;;;;;5032390;28;20033;-56
2023/12/01 05:43:02;;;;;;;11.77;8.48;;;19.10;31.60;;;;;;5031683;28;20037;-58
2023/12/01 05:45:35;;;;;;;10.93;8.43;;;19.10;31.60;;;;;;5032657;28;20041;-58
2023/12/01 05:48:03;;;;;;;12.00;9.23;;;19.10;32.20;;;;;;5031873;28;20099;-58
2023/12/01 05:50:32;;;;;;;11.38;8.73;;;19.00;31.50;;;;;;5014622;28;20021;-57
2023/12/01 05:53:00;;;;;;;11.65;9.02;;;19.10;31.60;;;;;;5032506;28;20081;-57
2023/12/01 05:55:32;;;;;;;10.30;8.20;;;19.00;31.60;;;;;;5033094;28;20014;-54
2023/12/01 05:58:01;;;;;;;11.00;8.13;;;19.00;31.60;;;;;;5032108;28;20075;-59
2023/12/01 06:00:32;;;;;;;12.40;9.52;;;19.00;31.60;;;;;;5032557;28;20029;-56
2023/12/01 06:03:02;;;;;;;11.70;8.68;;;19.00;31.60;;;;;;5014414;28;20492;-59
2023/12/01 06:05:29;;;;;;;9.80;7.97;;;19.00;31.60;;;;;;5032435;28;20133;-59
2023/12/01 06:07:59;;;;;;;10.82;8.18;;;19.00;31.60;;;;;;5014077;28;20029;-55
2023/12/01 06:10:26;;;;;;;11.20;8.25;;;19.00;31.60;;;;;;5032314;28;20037;-58
2023/12/01 06:12:53;;;;;;;10.07;7.28;;;19.00;31.60;;;;;;5032843;28;20041;-58
2023/12/01 06:15:19;;;;;;;8.20;6.13;;;19.00;31.70;;;;;;5031795;28;20037;-56
2023/12/01 06:17:49;;;;;;;7.47;5.95;;;19.00;31.60;;;;;;5031897;28;20053;-58
2023/12/01 06:20:20;;;;;;;8.55;6.45;;;19.00;31.60;;;;;;5031176;28;20017;-55
2023/12/01 06:23:00;;;;;;;7.75;6.30;;;19.00;31.50;;;;;;5036142;28;21416;-59
2023/12/01 06:25:29;;;;;;;7.72;5.30;;;19.00;31.40;;;;;;5018024;28;20085;-55
2023/12/01 06:28:05;;;;;;;8.45;5.95;;;19.00;31.40;;;;;;5035208;28;20064;-57
2023/12/01 06:30:33;;;;;;;7.28;5.90;;;19.00;31.30;;;;;;5035978;28;20336;-58
2023/12/01 06:33:03;;;;;;;7.05;5.60;;;19.00;31.30;;;;;;5035642;28;20017;-59
2023/12/01 06:35:31;;;;;;;6.68;5.10;;;19.00;31.30;;;;;;5035792;28;20120;-55
2023/12/01 06:37:57;;;;;;;6.30;4.70;;;19.00;31.20;;;;;;5034966;28;20037;-55
2023/12/01 06:40:23;;;;;;;5.82;4.72;;;19.00;31.10;;;;;;5018468;28;20415;-59
2023/12/01 06:42:54;;;;;;;7.63;5.55;;;19.00;31.10;;;;;;5034140;28;20430;-54
2023/12/01 06:45:23;;;;;;;5.95;5.05;;;19.00;31.10;;;;;;5035674;28;20692;-56
2023/12/01 06:47:50;;;;;;;6.55;4.40;;;18.90;31.00;;;;;;5033136;28;20087;-56
2023/12/01 06:50:18;;;;;;;5.78;4.30;;;18.90;31.00;;;;;;5018333;28;20033;-58
2023/12/01 06:52:47;;;;;;;5.85;4.45;;;19.00;31.10;;;;;;5018507;28;20029;-56
2023/12/01 06:55:13;;;;;;;6.75;5.03;;;18.90;31.00;;;;;;5033298;28;20117;-58
2023/12/01 06:57:45;;;;;;;6.82;4.63;;;18.90;31.00;;;;;;5036170;28;20029;-58
2023/12/01 07:02:57;;;;;;;6.15;4.38;;;18.90;31.10;;;;;;5035611;28;20322;-57
2023/12/01 07:05:25;;;;;;;5.32;4.30;;;18.90;31.00;;;;;;5035774;28;20069;-58
2023/12/01 07:07:53;;;;;;;5.22;4.40;;;18.90;31.00;;;;;;5017560;28;20071;-57
2023/12/01 07:10:19;;;;;;;6.07;4.25;;;18.90;31.00;;;;;;5035216;28;20025;-57
2023/12/01 07:12:45;;;;;;;5.97;4.40;;;18.90;31.10;;;;;;5017907;28;20104;-58
2023/12/01 07:15:11;;;;;;;6.45;4.82;;;18.90;31.00;;;;;;5035639;28;20109;-56
2023/12/01 07:17:40;;;;;;;5.50;4.25;;;18.90;31.00;;;;;;5034969;28;20177;-59
2023/12/01 07:20:15;;;;;;;6.28;4.85;;;18.90;31.00;;;;;;5035417;28;20080;-57
2023/12/01 07:22:44;;;;;;;5.10;3.80;;;18.90;30.90;;;;;;5035213;28;20479;-55
2023/12/01 07:25:23;;;;;;;5.57;4.22;;;18.90;31.00;;;;;;5016804;28;20440;-57
2023/12/01 07:28:01;;;;;;;6.28;4.25;;;18.90;31.00;;;;;;5034784;28;20033;-57
2023/12/01 07:30:27;;;;;;;5.40;4.05;;;18.90;30.90;;;;;;5034315;28;20030;-55
2023/12/01 07:32:53;;;;;;;5.18;4.30;;;18.90;31.00;;;;;;5016562;28;20051;-55
2023/12/01 07:35:19;;;;;;;5.10;4.10;;;18.90;31.10;;;;;;5034536;28;20025;-57
2023/12/01 07:37:51;;;;;;;5.25;4.10;;;18.90;31.10;;;;;;5017041;28;20368;-59
2023/12/01 07:40:21;;;;;;;6.47;4.68;;;18.90;31.20;;;;;;5034284;28;20461;-59
2023/12/01 07:42:48;;;;;;;5.88;4.20;;;18.80;31.20;;;;;;5035521;28;20059;-59
2023/12/01 07:45:17;;;;;;;5.70;4.18;;;18.80;31.20;;;;;;5054183;28;20052;-59
2023/12/01 07:47:49;;;;;;;6.47;4.30;;;18.80;31.20;;;;;;5036783;28;20039;-58
2023/12/01 07:50:16;;;;;;;5.10;4.00;;;18.90;31.20;;;;;;5036337;28;20116;-54
2023/12/01 07:52:47;;;;;;;4.97;3.85;;;18.90;31.20;;;;;;5054527;28;20111;-59
2023/12/01 07:55:13;;;;;;;4.75;3.65;;;18.90;31.10;;;;;;5036346;28;20024;-58
2023/12/01 07:57:39;;;;;;;4.85;3.53;;;19.00;31.10;;;;;;5054670;28;20087;-53
2023/12/01 08:00:16;;;;;;;4.85;3.42;;;19.00;31.10;;;;;;5054276;28;20035;-55
2023/12/01 08:02:44;;;;;;;4.70;3.60;;;19.00;31.10;;;;;;5052042;28;20061;-58
2023/12/01 08:05:14;;;;;;;4.97;3.95;;;19.10;31.10;;;;;;5053555;28;20108;-55
2023/12/01 08:07:54;;;;;;;4.50;3.17;;;19.20;31.10;;;;;;5036997;28;20055;-58
2023/12/01 08:10:20;;;;;;;4.22;3.35;;;19.20;31.00;;;;;;5054839;28;20021;-58
2023/12/01 08:12:48;;;;;;;3.92;3.03;;;19.30;31.00;;;;;;5054353;28;20037;-58
2023/12/01 08:15:15;;;;;;;4.75;3.50;;;19.30;30.90;;;;;;5055336;28;20025;-58
2023/12/01 08:17:42;;;;;;;4.43;3.33;;;19.40;30.80;;;;;;5054806;28;20086;-57
2023/12/01 08:20:10;;;;;;;3.85;3.15;;;19.50;30.80;;;;;;5054108;28;20017;-59
2023/12/01 08:22:39;;;;;;;5.93;3.00;;;19.50;30.60;;;;;;5036293;28;20123;-56
2023/12/01 08:25:07;;;;;;;3.88;2.90;;;19.60;30.60;;;;;;5035479;28;20053;-57
2023/12/01 08:27:33;;;;;;;4.65;3.40;;;19.70;30.50;;;;;;5035634;28;20045;-57
2023/12/01 08:29:59;;;;;;;3.72;2.65;;;19.80;30.50;;;;;;5053640;28;20025;-59
2023/12/01 08:32:25;;;;;;;4.85;3.30;;;19.90;30.40;;;;;;5053135;28;20025;-58
2023/12/01 08:34:51;;;;;;;3.92;2.83;;;19.90;30.30;;;;;;5053431;28;20017;-58
2023/12/01 08:37:17;;;;;;;3.85;3.05;;;20.00;30.20;;;;;;5053053;28;20035;-58
2023/12/01 08:39:44;;;;;;;3.58;2.78;;;20.10;30.80;;;;;;5035662;28;20033;-56
2023/12/01 08:42:10;;;;;;;3.85;2.70;;;20.10;30.10;;;;;;5039200;28;20380;-58
2023/12/01 08:44:36;;;;;;;4.65;3.22;;;20.20;30.10;;;;;;5032696;28;20029;-60
2023/12/01 08:47:02;;;;;;;3.40;2.55;;;20.20;30.00;;;;;;5033209;28;20056;-58
2023/12/01 08:49:29;;;;;;;4.50;2.70;;;20.30;30.00;;;;;;5032185;28;20042;-60
2023/12/01 08:51:55;;;;;;;4.05;3.13;;;20.30;29.90;;;;;;5033154;28;20061;-59
2023/12/01 08:54:22;;;;;;;3.78;2.58;;;20.40;29.90;;;;;;5034277;28;20025;-57
2023/12/01 08:56:48;;;;;;;4.05;2.50;;;20.40;30.40;;;;;;5031840;28;20127;-58
2023/12/01 08:59:16;;;;;;;3.83;2.85;;;20.50;29.80;;;;;;5035281;28;20037;-59
2023/12/01 09:01:42;;;;;;;3.50;2.90;;;20.60;29.80;;;;;;5017571;28;20037;-57
2023/12/01 09:04:08;;;;;;;3.55;2.88;;;20.60;29.80;;;;;;5017928;28;20028;-60
2023/12/01 09:06:34;;;;;;;3.88;3.00;;;20.70;29.80;;;;;;5032755;28;20092;-58
2023/12/01 09:09:00;;;;;;;3.72;2.67;;;20.70;29.70;;;;;;5033718;28;20032;-58
2023/12/01 09:11:26;;;;;;;3.80;2.70;;;20.80;29.70;;;;;;5034554;28;20049;-60
2023/12/01 09:13:52;;;;;;;3.75;2.78;;;20.80;29.60;;;;;;5034826;28;20096;-58
2023/12/01 09:16:20;;;;;;;3.45;2.78;;;20.80;29.60;;;;;;5017492;28;20397;-60
2023/12/01 09:18:46;;;;;;;3.75;2.60;;;20.80;29.50;;;;;;5032945;28;20030;-57
2023/12/01 09:21:12;;;;;;;3.65;2.63;;;20.80;29.50;;;;;;5034240;28;20480;-59
2023/12/01 09:23:40;;;;;;;3.15;2.55;;;20.90;29.50;;;;;;5016649;28;20040;-58
2023/12/01 09:26:06;;;;;;;4.40;2.30;;;20.90;29.40;;;;;;5030505;28;20026;-60
2023/12/01 09:28:35;;;;;;;3.05;2.15;;;20.90;29.50;;;;;;5033357;28;20041;-60
2023/12/01 09:31:04;;;;;;;4.13;2.38;;;21.00;29.60;;;;;;5033211;28;20177;-63
2023/12/01 09:33:31;;;;;;;3.17;2.33;;;21.00;29.70;;;;;;5016627;28;20116;-60
2023/12/01 09:35:57;;;;;;;3.22;2.60;;;21.10;29.80;;;;;;5017396;28;20037;-62
2023/12/01 09:38:25;;;;;;;3.38;2.35;;;21.10;29.90;;;;;;5030330;28;20018;-64
2023/12/01 09:40:51;;;;;;;2.22;1.83;;;21.20;29.90;;;;;;5024427;28;20025;-62
2023/12/01 09:43:18;;;;;;;3.70;2.50;;;21.20;29.90;;;;;;5023299;28;20026;-61
2023/12/01 09:45:45;;;;;;;3.33;2.58;;;21.30;30.00;;;;;;4998138;28;20052;-59
2023/12/01 09:48:14;;;;;;;3.22;2.33;;;21.30;30.00;;;;;;4997737;28;20030;-58
2023/12/01 09:50:40;;;;;;;2.72;2.30;;;21.30;30.00;;;;;;5016008;28;20083;-57
2023/12/01 09:53:06;;;;;;;4.90;2.45;;;21.40;30.00;;;;;;5033474;28;20029;-56
2023/12/01 09:55:33;;;;;;;2.80;2.28;;;21.40;30.10;;;;;;5019028;28;20048;-57
2023/12/01 09:57:59;;;;;;;3.53;2.50;;;21.40;30.10;;;;;;5037272;28;20033;-60
2023/12/01 10:00:25;;;;;;;2.97;2.30;;;21.40;30.00;;;;;;5018843;28;20037;-58
2023/12/01 10:02:51;;;;;;;3.90;2.90;;;21.40;30.00;;;;;;5038665;28;20033;-55
2023/12/01 10:05:20;;;;;;;3.53;2.50;;;21.40;30.00;;;;;;5038178;28;20424;-57
2023/12/01 10:07:48;;;;;;;3.15;2.30;;;21.40;30.00;;;;;;5037200;28;20026;-60
2023/12/01 10:10:19;;;;;;;3.22;2.75;;;21.40;29.90;;;;;;5037573;28;20026;-55
2023/12/01 10:13:09;;;;;;;2.83;2.13;;;21.40;29.90;;;;;;5037160;28;20083;-58
2023/12/01 10:15:40;;;;;;;2.90;2.38;;;21.30;29.80;;;;;;5037201;28;20103;-56
2023/12/01 10:18:16;;;;;;;2.95;2.25;;;21.30;29.80;;;;;;5035893;28;20352;-56
2023/12/01 10:21:02;;;;;;;3.30;2.40;;;21.30;29.80;;;;;;5034669;28;20033;-52
2023/12/01 10:23:33;;;;;;;3.05;2.50;;;21.20;29.60;;;;;;5035253;28;20091;-58
2023/12/01 10:26:03;;;;;;;3.42;2.72;;;21.20;29.60;;;;;;5036720;28;20049;-55
2023/12/01 10:28:40;;;;;;;5.32;2.55;;;21.10;29.60;;;;;;5036606;28;20026;-56
2023/12/01 10:31:06;;;;;;;3.22;2.55;;;21.10;29.50;;;;;;5036217;28;20105;-58
2023/12/01 10:33:35;;;;;;;4.10;2.90;;;21.00;29.50;;;;;;5037062;28;20395;-58
2023/12/01 10:36:03;;;;;;;4.60;3.05;;;21.00;29.50;;;;;;5003176;28;20111;-55
2023/12/01 10:38:31;;;;;;;3.88;2.58;;;21.00;29.50;;;;;;5036805;28;20036;-58
2023/12/01 10:40:58;;;;;;;4.10;2.90;;;20.90;29.40;;;;;;5036600;28;20044;-53
2023/12/01 10:43:26;;;;;;;3.72;2.90;;;20.90;29.40;;;;;;5036939;28;20083;-57
2023/12/01 10:45:52;;;;;;;3.92;2.90;;;20.90;29.40;;;;;;5036104;28;20466;-56
2023/12/01 10:48:20;;;;;;;3.58;2.47;;;20.80;29.40;;;;;;5019245;28;20056;-58
2023/12/01 10:50:50;;;;;;;4.00;2.55;;;20.90;29.40;;;;;;5035993;28;20025;-54
2023/12/01 10:53:17;;;;;;;4.93;3.45;;;20.90;29.40;;;;;;5002112;28;20037;-57
2023/12/01 10:55:47;;;;;;;3.92;2.80;;;20.80;29.40;;;;;;5036554;28;20034;-55
2023/12/01 10:58:20;;;;;;;3.42;2.88;;;20.80;29.80;;;;;;5036431;28;20449;-57
2023/12/01 11:00:57;;;;;;;5.75;3.15;;;20.80;29.30;;;;;;5036208;28;20045;-60
2023/12/01 11:03:28;;;;;;;4.10;2.67;;;20.80;29.30;;;;;;5036063;28;20033;-57
2023/12/01 11:06:29;;;;;;;4.03;3.10;;;20.80;29.80;;;;;;5035939;28;20092;-59
2023/12/01 11:09:28;;;;;;;4.05;2.75;;;20.70;29.30;;;;;;4999061;28;20029;-57
2023/12/01 11:12:08;;;;;;;3.90;2.70;;;20.70;29.80;;;;;;5036148;28;20021;-56
2023/12/01 11:14:37;;;;;;;3.92;2.72;;;20.70;29.30;;;;;;5016620;28;20338;-59
2023/12/01 11:17:04;;;;;;;3.75;2.60;;;20.70;29.30;;;;;;5035077;28;20029;-58
2023/12/01 11:19:39;;;;;;;3.83;2.88;;;20.70;29.30;;;;;;5035903;28;20057;-57
2023/12/01 11:22:26;;;;;;;3.67;2.67;;;20.60;29.20;;;;;;5035792;28;20048;-57
2023/12/01 11:24:52;;;;;;;4.10;2.60;;;20.60;29.20;;;;;;5015843;28;20040;-58
2023/12/01 11:27:19;;;;;;;2.95;2.42;;;20.60;29.20;;;;;;5036465;28;20430;-57
2023/12/01 11:30:10;;;;;;;3.70;2.72;;;20.60;29.10;;;;;;5035538;28;20519;-58
2023/12/01 11:32:40;;;;;;;3.88;2.47;;;20.60;29.10;;;;;;5034797;28;20017;-57
2023/12/01 11:35:09;;;;;;;3.47;2.53;;;20.60;29.10;;;;;;5017659;28;20033;-53
2023/12/01 11:37:54;;;;;;;2.70;2.10;;;20.60;29.10;;;;;;5034990;28;20452;-54
2023/12/01 11:40:22;;;;;;;3.78;2.80;;;20.60;29.10;;;;;;5018040;28;20345;-59
2023/12/01 11:42:51;;;;;;;3.88;2.90;;;20.60;29.10;;;;;;5036553;28;20049;-51
2023/12/01 11:45:36;;;;;;;3.50;2.58;;;20.60;29.10;;;;;;5055090;28;20037;-58
2023/12/01 11:48:09;;;;;;;3.35;2.85;;;20.50;29.00;;;;;;5037752;28;20460;-58
2023/12/01 11:50:38;;;;;;;4.38;2.97;;;20.50;29.50;;;;;;5055186;28;20017;-55
2023/12/01 11:53:05;;;;;;;3.58;2.65;;;20.50;29.00;;;;;;5055143;28;20033;-59
2023/12/01 11:55:33;;;;;;;3.70;2.70;;;20.50;29.00;;;;;;5054812;28;20039;-57
2023/12/01 11:57:59;;;;;;;3.78;3.00;;;20.50;29.50;;;;;;5055174;28;20025;-50
2023/12/01 12:00:25;;;;;;;3.20;2.40;;;20.50;29.00;;;;;;5055088;28;20032;-54
2023/12/01 12:02:52;;;;;;;3.58;2.70;;;20.50;29.00;;;;;;5054902;28;20444;-58
2023/12/01 12:05:18;;;;;;;3.40;2.55;;;20.40;29.00;;;;;;5037244;28;20360;-57
2023/12/01 12:07:45;;;;;;;3.58;2.80;;;20.40;29.10;;;;;;5054244;28;20044;-57
2023/12/01 12:10:17;;;;;;;4.47;3.15;;;20.50;29.10;;;;;;5054730;28;20048;-57
2023/12/01 12:12:43;;;;;;;4.15;2.88;;;20.40;29.10;;;;;;5054924;28;20036;-55
2023/12/01 12:15:10;;;;;;;3.42;2.72;;;20.40;29.10;;;;;;5054961;28;20101;-58
2023/12/01 12:17:39;;;;;;;4.00;2.97;;;20.40;29.10;;;;;;5053543;28;20090;-55
2023/12/01 12:20:06;;;;;;;4.05;3.28;;;20.40;29.20;;;;;;5053955;28;20483;-55
2023/12/01 12:22:32;;;;;;;3.92;2.90;;;20.40;29.20;;;;;;5054781;28;20036;-58
2023/12/01 12:24:58;;;;;;;3.22;2.67;;;20.40;29.20;;;;;;5037076;28;20131;-57
2023/12/01 12:27:23;;;;;;;4.97;2.85;;;20.40;29.20;;;;;;5053639;28;20563;-56
2023/12/01 12:29:52;;;;;;;3.67;2.97;;;20.40;29.30;;;;;;5038163;28;20035;-57
2023/12/01 12:32:18;;;;;;;3.70;2.80;;;20.40;29.20;;;;;;5054809;28;20024;-55
2023/12/01 12:34:44;;;;;;;4.03;3.03;;;20.40;29.20;;;;;;5055432;28;20123;-58
2023/12/01 12:37:13;;;;;;;4.28;3.50;;;20.30;29.20;;;;;;5055607;28;20040;-55
2023/12/01 12:39:38;;;;;;;3.75;2.72;;;20.30;29.20;;;;;;5053934;28;20036;-55
2023/12/01 12:42:05;;;;;;;3.95;2.95;;;20.30;29.20;;;;;;5041476;28;20409;-56
2023/12/01 12:44:30;;;;;;;4.47;3.30;;;20.30;29.20;;;;;;5030505;28;20029;-55
2023/12/01 12:47:02;;;;;;;4.32;3.20;;;20.30;29.20;;;;;;5034067;28;20361;-55
2023/12/01 12:49:32;;;;;;;4.15;3.15;;;20.30;29.30;;;;;;5034562;28;20036;-55